OICK  Khoram Abad Airport

Add Bookmark

Iran

Status IATA
Operational KHD
Latitude Longitude
33° 26' 7" N 48° 16' 58" E
33.435398 48.282902
Local (DST + 5) UTC (GMT + 4)
Dec 22, 2014 07:02 Dec 22, 2014 03:32
Sunrise-Sunset Local UTC
Begin Civil Twilight 06:48 03:18
Sunrise 07:16 03:46
Sunset 05:14 13:44
End Civil Twilight 05:42 14:12

Current Weather

METAR Observed MVFR
OICK 210430Z 28004KT 8000 FEW030CB SCT035 07/06 Q1017 Sun, Dec 21, 2014 @ 04:30 UTC
(23 Hours, 2 Minutes ago)
Marginal Visual Flight Rules
Wind Visibility Clouds Conditions
280° at 4 knots (7 kph) 8000 meters
  • Few at 3,000' AGL
  • Scattered at 3,500' AGL
  • No significant weather
Temperatures Readings Precipitation
Current Temp 7°C (45°F)
Dewpoint 6°C (43°F)
Humidity 93%
Altimeter 30.03"Hg
Sea Level Pressure 1017mb
Field Elevation 3789.37'
None Recorded

24 Hour Weather History

Loading
-

24 Hour Weather Graphs

Loading
-

CheckWX.com is intended as a tool to help pilots better visualize weather data. It is not intended as a substitute for an official weather briefing obtained from a Flight Service Station. CheckWX.com does not meet the FAA requirements for an official pre-flight weather briefing. Therefore, it's important that pilots still call and obtain an official FSS pre-flight weather briefing.